createdAt,value
2022-09-20T00:00:26.103Z,1.80
2022-09-20T00:03:28.257Z,1.80
2022-09-20T00:06:31.462Z,1.90
2022-09-20T00:09:33.606Z,1.90
2022-09-20T00:12:35.850Z,1.77
2022-09-20T00:15:45.564Z,2.00
2022-09-20T00:18:52.099Z,1.80
2022-09-20T00:21:54.326Z,1.60
2022-09-20T00:24:56.491Z,1.70
2022-09-20T00:27:59.099Z,1.40
2022-09-20T00:31:01.537Z,1.70
2022-09-20T00:34:22.390Z,1.30
2022-09-20T00:37:24.605Z,1.60
2022-09-20T00:40:30.439Z,1.30
2022-09-20T00:43:41.080Z,1.30
2022-09-20T00:46:44.840Z,1.17
2022-09-20T00:49:47.207Z,1.35
2022-09-20T00:52:52.862Z,1.52
2022-09-20T00:56:02.007Z,1.30
2022-09-20T00:59:21.456Z,1.53
2022-09-20T01:02:27.105Z,1.17
2022-09-20T01:05:29.391Z,1.20
2022-09-20T01:08:32.635Z,1.27
2022-09-20T01:11:35.583Z,1.20
2022-09-20T01:14:37.955Z,1.00
2022-09-20T01:17:43.345Z,1.08
2022-09-20T01:20:45.964Z,1.10
2022-09-20T01:23:55.918Z,1.30
2022-09-20T01:27:30.390Z,1.20
2022-09-20T01:30:40.892Z,1.43
2022-09-20T01:34:08.717Z,1.17
2022-09-20T01:37:25.799Z,1.20
2022-09-20T01:40:45.550Z,1.20
2022-09-20T01:43:53.354Z,1.30
2022-09-20T01:47:01.899Z,1.10
2022-09-20T01:50:04.256Z,1.20
2022-09-20T01:53:31.055Z,1.20
2022-09-20T01:56:43.682Z,1.30
2022-09-20T02:00:04.641Z,1.20
2022-09-20T02:03:06.897Z,1.30
2022-09-20T02:06:39.300Z,1.10
2022-09-20T02:09:47.410Z,1.25
2022-09-20T02:12:54.253Z,1.52
2022-09-20T02:16:02.602Z,1.33
2022-09-20T02:19:07.840Z,1.20
2022-09-20T02:22:24.929Z,1.58
2022-09-20T02:25:49.924Z,1.58
2022-09-20T02:28:59.151Z,1.55
2022-09-20T02:32:07.034Z,1.40
2022-09-20T02:35:57.155Z,1.63
2022-09-20T02:39:16.643Z,1.38
2022-09-20T02:42:35.301Z,1.52
2022-09-20T02:45:52.241Z,1.50
2022-09-20T02:49:16.315Z,1.60
2022-09-20T02:52:33.133Z,1.57
2022-09-20T02:55:55.817Z,1.80
2022-09-20T02:59:10.113Z,1.60
2022-09-20T03:02:23.260Z,1.40
2022-09-20T03:05:49.588Z,1.50
2022-09-20T03:09:05.372Z,2.30
2022-09-20T03:12:11.646Z,1.80
2022-09-20T03:15:27.646Z,1.92
2022-09-20T03:18:56.956Z,1.95
2022-09-20T03:22:05.574Z,1.90
2022-09-20T03:25:21.982Z,1.90
2022-09-20T03:28:39.927Z,2.08
2022-09-20T03:31:46.129Z,1.80
2022-09-20T03:35:16.518Z,1.80
2022-09-20T03:39:03.853Z,1.98
2022-09-20T03:42:18.310Z,2.00
2022-09-20T03:45:39.683Z,1.70
2022-09-20T03:49:06.480Z,1.95
2022-09-20T03:52:39.475Z,2.03
2022-09-20T03:56:07.251Z,1.95
2022-09-20T03:59:39.116Z,1.70
2022-09-20T04:03:16.210Z,1.92
2022-09-20T04:06:24.331Z,1.75
2022-09-20T04:09:36.820Z,1.60
2022-09-20T04:12:47.885Z,1.90
2022-09-20T04:16:11.284Z,1.70
2022-09-20T04:19:14.620Z,1.95
2022-09-20T04:22:22.837Z,2.20
2022-09-20T04:25:40.700Z,2.00
2022-09-20T04:28:52.387Z,1.70
2022-09-20T04:32:36.874Z,1.70
2022-09-20T04:36:10.196Z,2.15
2022-09-20T04:39:34.616Z,2.38
2022-09-20T04:43:14.139Z,2.10
2022-09-20T04:46:32.071Z,2.20
2022-09-20T04:50:27.809Z,2.30
2022-09-20T04:53:47.281Z,2.03
2022-09-20T04:57:07.941Z,1.98
2022-09-20T05:00:33.269Z,2.20
2022-09-20T05:03:47.429Z,2.28
2022-09-20T05:07:10.278Z,2.20
2022-09-20T05:10:43.622Z,2.30
2022-09-20T05:13:51.459Z,2.20
2022-09-20T05:17:17.578Z,2.38
2022-09-20T05:20:36.203Z,2.20
2022-09-20T05:23:59.948Z,1.70
2022-09-20T05:27:22.353Z,1.85
2022-09-20T05:30:34.567Z,1.50
2022-09-20T05:33:54.964Z,1.42
2022-09-20T05:37:21.890Z,1.52
2022-09-20T05:40:55.502Z,1.70
2022-09-20T05:44:16.235Z,1.50
2022-09-20T05:47:23.789Z,1.45
2022-09-20T05:50:46.626Z,1.42
2022-09-20T05:53:58.528Z,1.52
2022-09-20T05:57:22.922Z,1.30
2022-09-20T06:00:30.421Z,1.50
2022-09-20T06:03:55.912Z,1.38
2022-09-20T06:07:13.187Z,1.40
2022-09-20T06:10:39.815Z,1.27
2022-09-20T06:13:45.575Z,1.60
2022-09-20T06:16:54.055Z,1.70
2022-09-20T06:20:09.447Z,1.35
2022-09-20T06:23:12.284Z,1.40
2022-09-20T06:26:24.203Z,1.30
2022-09-20T06:29:33.809Z,1.17
2022-09-20T06:33:10.999Z,1.45
2022-09-20T06:36:35.079Z,1.00
2022-09-20T06:40:26.075Z,1.00
2022-09-20T06:43:31.340Z,1.25
2022-09-20T06:46:36.140Z,0.90
2022-09-20T06:49:39.523Z,1.25
2022-09-20T06:52:42.212Z,0.90
2022-09-20T06:55:45.310Z,1.05
2022-09-20T06:58:47.534Z,1.00
2022-09-20T07:01:50.023Z,0.93
2022-09-20T07:04:58.331Z,0.95
2022-09-20T07:08:01.470Z,1.30
2022-09-20T07:11:15.846Z,1.10
2022-09-20T07:14:19.723Z,1.30
2022-09-20T07:17:22.384Z,3.30
2022-09-20T07:20:24.711Z,2.22
2022-09-20T07:23:27.772Z,1.52
2022-09-20T07:26:30.765Z,1.20
2022-09-20T07:29:35.195Z,1.63
2022-09-20T07:32:37.382Z,2.00
2022-09-20T07:35:40.083Z,1.25
2022-09-20T07:38:43.342Z,1.30
2022-09-20T07:41:48.637Z,1.10
2022-09-20T07:44:51.248Z,1.40
2022-09-20T07:47:54.477Z,1.00
2022-09-20T07:50:59.245Z,1.20
2022-09-20T07:54:01.411Z,1.20
2022-09-20T07:57:05.677Z,2.00
2022-09-20T08:00:09.184Z,1.52
2022-09-20T08:03:17.008Z,1.20
2022-09-20T08:06:21.335Z,1.23
2022-09-20T08:09:23.884Z,1.40
2022-09-20T08:15:48.700Z,1.60
2022-09-20T08:18:58.017Z,1.80
2022-09-20T08:22:00.932Z,1.20
2022-09-20T08:25:04.139Z,1.27
2022-09-20T08:28:06.565Z,1.40
2022-09-20T08:31:13.378Z,1.30
2022-09-20T08:34:18.010Z,1.10
2022-09-20T08:37:21.205Z,1.10
2022-09-20T08:40:25.297Z,1.67
2022-09-20T08:43:34.870Z,2.67
2022-09-20T08:46:43.897Z,1.70
2022-09-20T08:49:47.005Z,1.30
2022-09-20T08:52:52.947Z,1.02
2022-09-20T08:55:59.427Z,1.00
2022-09-20T08:59:02.678Z,1.20
2022-09-20T09:02:17.919Z,1.10
2022-09-20T09:05:55.072Z,1.10
2022-09-20T09:08:58.394Z,1.00
2022-09-20T09:12:00.719Z,1.40
2022-09-20T09:15:23.648Z,1.40
2022-09-20T09:18:35.188Z,1.02
2022-09-20T09:21:37.841Z,1.07
2022-09-20T09:24:39.988Z,0.90
2022-09-20T09:28:06.486Z,1.10
2022-09-20T09:31:29.173Z,1.13
2022-09-20T09:34:34.779Z,1.00
2022-09-20T09:37:37.054Z,0.90
2022-09-20T09:40:50.557Z,1.10
2022-09-20T09:44:04.969Z,1.20
2022-09-20T09:47:23.338Z,1.05
2022-09-20T09:50:33.599Z,1.00
2022-09-20T09:53:36.759Z,1.00
2022-09-20T09:57:13.595Z,1.30
2022-09-20T10:00:21.916Z,1.20
2022-09-20T10:03:37.801Z,1.13
2022-09-20T10:06:52.183Z,1.00
2022-09-20T10:10:13.233Z,0.90
2022-09-20T10:13:41.162Z,1.00
2022-09-20T10:17:12.298Z,1.13
2022-09-20T10:20:31.260Z,0.85
2022-09-20T10:27:49.611Z,0.90
2022-09-20T10:31:33.307Z,1.10
2022-09-20T10:34:54.303Z,1.00
2022-09-20T10:38:15.395Z,1.00
2022-09-20T10:42:08.651Z,1.00
2022-09-20T10:45:43.954Z,1.00
2022-09-20T10:48:48.921Z,0.80
2022-09-20T10:52:15.639Z,0.90
2022-09-20T10:55:41.954Z,0.70
2022-09-20T10:59:08.870Z,0.80
2022-09-20T11:02:40.571Z,0.80
2022-09-20T11:06:01.445Z,0.80
2022-09-20T11:09:11.836Z,0.98
2022-09-20T11:12:27.967Z,1.13
2022-09-20T11:15:33.614Z,0.73
2022-09-20T11:18:41.372Z,1.00
2022-09-20T11:21:48.472Z,0.80
2022-09-20T11:25:29.290Z,0.80
2022-09-20T11:28:39.537Z,0.80
2022-09-20T11:31:45.148Z,0.90
2022-09-20T11:34:51.510Z,0.80
2022-09-20T11:38:16.717Z,0.85
2022-09-20T11:41:23.816Z,1.00
2022-09-20T11:44:26.281Z,0.70
2022-09-20T11:47:54.087Z,1.17
2022-09-20T11:51:46.445Z,1.00
2022-09-20T11:54:55.728Z,1.15
2022-09-20T11:58:09.686Z,1.00
2022-09-20T12:01:13.123Z,1.10
2022-09-20T12:04:32.399Z,0.73
2022-09-20T12:07:44.743Z,1.27
2022-09-20T12:10:57.248Z,0.85
2022-09-20T12:14:08.432Z,0.80
2022-09-20T12:17:48.495Z,0.90
2022-09-20T12:20:51.794Z,0.70
2022-09-20T12:23:57.748Z,1.20
2022-09-20T12:27:42.508Z,1.10
2022-09-20T12:30:45.716Z,0.80
2022-09-20T12:34:14.410Z,1.33
2022-09-20T12:37:19.859Z,0.82
2022-09-20T12:40:23.707Z,0.63
2022-09-20T12:43:28.812Z,0.60
2022-09-20T12:46:39.270Z,0.80
2022-09-20T12:50:06.807Z,0.70
2022-09-20T12:53:14.748Z,0.70
2022-09-20T12:56:20.390Z,0.60
2022-09-20T12:59:27.799Z,0.80
2022-09-20T13:02:52.412Z,0.75
2022-09-20T13:06:06.821Z,0.85
2022-09-20T13:09:10.709Z,0.80
2022-09-20T13:12:13.811Z,0.80
2022-09-20T13:15:21.108Z,1.10
2022-09-20T13:18:25.426Z,0.95
2022-09-20T13:21:28.930Z,0.90
2022-09-20T13:24:52.816Z,1.10
2022-09-20T13:28:19.096Z,0.90
2022-09-20T13:31:30.362Z,1.00
2022-09-20T13:34:33.434Z,1.40
2022-09-20T13:37:59.764Z,1.20
2022-09-20T13:41:07.577Z,0.98
2022-09-20T13:44:17.328Z,1.20
2022-09-20T13:47:27.820Z,1.10
2022-09-20T13:50:33.852Z,1.00
2022-09-20T13:53:41.942Z,1.00
2022-09-20T13:56:44.788Z,0.90
2022-09-20T13:59:47.293Z,0.80
2022-09-20T14:02:50.476Z,0.90
2022-09-20T14:06:04.610Z,0.63
2022-09-20T14:09:11.408Z,0.80
2022-09-20T14:12:14.270Z,0.70
2022-09-20T14:15:16.870Z,0.80
2022-09-20T14:18:21.346Z,0.60
2022-09-20T14:21:26.125Z,0.60
2022-09-20T14:24:32.966Z,0.60
2022-09-20T14:27:35.368Z,0.80
2022-09-20T14:30:37.622Z,0.70
2022-09-20T14:33:45.289Z,0.70
2022-09-20T14:36:48.945Z,0.80
2022-09-20T14:39:56.341Z,0.77
2022-09-20T14:43:04.106Z,0.60
2022-09-20T14:46:15.638Z,0.53
2022-09-20T14:49:26.566Z,0.80
2022-09-20T14:52:28.707Z,0.65
2022-09-20T14:55:37.195Z,0.90
2022-09-20T14:59:03.670Z,0.80
2022-09-20T15:02:12.706Z,0.70
2022-09-20T15:05:26.341Z,1.00
2022-09-20T15:08:28.554Z,0.90
2022-09-20T15:11:30.730Z,0.60
2022-09-20T15:14:37.567Z,0.82
2022-09-20T15:17:44.619Z,0.90
2022-09-20T15:20:48.633Z,1.05
2022-09-20T15:23:51.802Z,1.50
2022-09-20T15:26:54.165Z,0.80
2022-09-20T15:29:56.285Z,0.80
2022-09-20T15:33:02.734Z,0.70
2022-09-20T15:36:05.823Z,0.80
2022-09-20T15:39:08.518Z,0.80
2022-09-20T15:42:11.125Z,0.90
2022-09-20T15:45:13.628Z,0.80
2022-09-20T15:48:20.865Z,0.90
2022-09-20T15:51:23.479Z,0.70
2022-09-20T15:54:26.750Z,0.90
2022-09-20T15:57:29.206Z,0.98
2022-09-20T16:00:31.472Z,0.80
2022-09-20T16:03:35.501Z,1.10
2022-09-20T16:06:38.712Z,1.17
2022-09-20T16:09:40.892Z,1.42
2022-09-20T16:12:43.038Z,1.23
2022-09-20T16:15:53.739Z,1.10
2022-09-20T16:19:14.702Z,1.27
2022-09-20T16:22:16.885Z,1.30
2022-09-20T16:25:19.644Z,1.10
2022-09-20T16:28:22.092Z,1.23
2022-09-20T16:31:47.333Z,1.23
2022-09-20T16:34:51.150Z,1.20
2022-09-20T16:37:53.591Z,1.70
2022-09-20T16:40:56.268Z,1.30
2022-09-20T16:43:58.462Z,1.73
2022-09-20T16:47:01.169Z,1.15
2022-09-20T16:50:03.560Z,1.57
2022-09-20T16:53:05.720Z,1.48
2022-09-20T16:56:07.911Z,1.30
2022-09-20T16:59:10.841Z,1.13
2022-09-20T17:02:13.184Z,1.20
2022-09-20T17:05:15.807Z,1.10
2022-09-20T17:08:18.615Z,0.98
2022-09-20T17:11:28.157Z,1.10
2022-09-20T17:14:31.559Z,1.10
2022-09-20T17:17:34.259Z,1.00
2022-09-20T17:20:38.548Z,0.90
2022-09-20T17:23:42.337Z,1.00
2022-09-20T17:26:45.473Z,0.90
2022-09-20T17:29:47.918Z,0.80
2022-09-20T17:32:51.797Z,0.90
2022-09-20T17:35:54.154Z,1.00
2022-09-20T17:39:02.964Z,1.20
2022-09-20T17:42:06.615Z,1.23
2022-09-20T17:45:09.309Z,1.02
2022-09-20T17:48:11.488Z,0.80
2022-09-20T17:51:13.649Z,0.80
2022-09-20T17:54:16.162Z,0.90
2022-09-20T17:57:18.522Z,1.10
2022-09-20T18:00:20.671Z,1.20
2022-09-20T18:03:24.235Z,1.00
2022-09-20T18:06:29.444Z,1.20
2022-09-20T18:09:32.742Z,0.80
2022-09-20T18:12:35.737Z,1.00
2022-09-20T18:15:38.083Z,1.00
2022-09-20T18:18:41.427Z,0.70
2022-09-20T18:21:44.078Z,0.60
2022-09-20T18:24:46.209Z,0.80
2022-09-20T18:27:49.337Z,0.85
2022-09-20T18:31:02.422Z,0.70
2022-09-20T18:34:09.193Z,0.63
2022-09-20T18:37:14.743Z,0.43
2022-09-20T18:40:17.214Z,0.60
2022-09-20T18:43:19.647Z,0.75
2022-09-20T18:46:27.143Z,0.70
2022-09-20T18:49:30.664Z,0.50
2022-09-20T18:52:35.775Z,0.40
2022-09-20T18:55:38.266Z,0.40
2022-09-20T18:58:40.634Z,0.60
2022-09-20T19:02:23.938Z,0.50
2022-09-20T19:05:41.804Z,0.40
2022-09-20T19:08:59.205Z,0.50
2022-09-20T19:12:07.542Z,0.57
2022-09-20T19:15:23.811Z,0.55
2022-09-20T19:18:56.351Z,0.40
2022-09-20T19:22:11.691Z,0.68
2022-09-20T19:25:32.926Z,0.40
2022-09-20T19:28:35.468Z,0.50
2022-09-20T19:31:37.997Z,1.10
2022-09-20T19:34:43.074Z,0.50
2022-09-20T19:38:11.721Z,0.50
2022-09-20T19:41:39.709Z,1.83
2022-09-20T19:45:00.435Z,0.80
2022-09-20T19:48:09.329Z,0.57
2022-09-20T19:51:12.376Z,1.00
2022-09-20T19:54:18.794Z,0.90
2022-09-20T19:57:23.503Z,1.60
2022-09-20T20:00:26.256Z,2.03
2022-09-20T20:03:29.942Z,2.83
2022-09-20T20:06:48.666Z,2.20
2022-09-20T20:10:02.664Z,1.85
2022-09-20T20:13:38.619Z,1.43
2022-09-20T20:17:08.328Z,2.40
2022-09-20T20:20:39.715Z,2.25
2022-09-20T20:24:00.824Z,2.58
2022-09-20T20:27:04.433Z,2.38
2022-09-20T20:30:08.140Z,1.40
2022-09-20T20:33:17.273Z,1.42
2022-09-20T20:36:19.674Z,2.65
2022-09-20T20:39:21.814Z,2.78
2022-09-20T20:42:24.104Z,2.10
2022-09-20T20:45:26.850Z,1.33
2022-09-20T20:48:29.475Z,1.60
2022-09-20T20:51:33.163Z,2.38
2022-09-20T20:54:35.365Z,1.20
2022-09-20T20:57:38.075Z,0.90
2022-09-20T21:00:40.232Z,1.20
2022-09-20T21:03:45.950Z,1.00
2022-09-20T21:06:50.167Z,1.20
2022-09-20T21:09:52.556Z,1.20
2022-09-20T21:12:54.857Z,5.63
2022-09-20T21:16:14.398Z,5.23
2022-09-20T21:19:16.867Z,3.63
2022-09-20T21:22:18.998Z,3.33
2022-09-20T21:25:21.164Z,2.67
2022-09-20T21:28:23.416Z,2.10
2022-09-20T21:31:31.296Z,1.43
2022-09-20T21:34:35.279Z,2.47
2022-09-20T21:37:38.161Z,2.65
2022-09-20T21:40:42.275Z,3.25
2022-09-20T21:43:46.696Z,2.72
2022-09-20T21:46:50.405Z,3.27
2022-09-20T21:49:53.294Z,3.60
2022-09-20T21:52:56.180Z,5.30
2022-09-20T21:56:00.311Z,5.10
2022-09-20T21:59:04.625Z,4.10
2022-09-20T22:02:07.662Z,4.07
2022-09-20T22:05:11.730Z,2.78
2022-09-20T22:08:15.025Z,3.00
2022-09-20T22:11:19.559Z,3.00
2022-09-20T22:14:22.547Z,2.20
2022-09-20T22:17:27.382Z,1.93
2022-09-20T22:20:30.270Z,2.20
2022-09-20T22:23:33.466Z,2.05
2022-09-20T22:26:44.842Z,1.80
2022-09-20T22:29:48.559Z,1.90
2022-09-20T22:32:51.003Z,1.83
2022-09-20T22:35:53.131Z,1.90
2022-09-20T22:38:56.117Z,1.85
2022-09-20T22:41:58.250Z,2.00
2022-09-20T22:45:00.421Z,2.03
2022-09-20T22:48:02.656Z,1.77
2022-09-20T22:51:08.315Z,2.10
2022-09-20T22:54:11.678Z,2.47
2022-09-20T22:57:13.925Z,2.03
2022-09-20T23:00:16.453Z,2.10
2022-09-20T23:03:18.656Z,2.23
2022-09-20T23:06:24.122Z,2.15
2022-09-20T23:09:30.321Z,2.00
2022-09-20T23:12:32.461Z,2.30
2022-09-20T23:15:34.597Z,2.42
2022-09-20T23:18:36.751Z,1.83
2022-09-20T23:21:40.666Z,2.00
2022-09-20T23:24:43.763Z,2.15
2022-09-20T23:27:46.854Z,2.35
2022-09-20T23:30:49.758Z,2.50
2022-09-20T23:33:58.056Z,2.63
2022-09-20T23:37:00.468Z,2.28
2022-09-20T23:40:03.409Z,2.58
2022-09-20T23:43:05.629Z,2.35
2022-09-20T23:46:08.988Z,2.90
2022-09-20T23:49:11.838Z,2.43
2022-09-20T23:52:14.824Z,3.03
2022-09-20T23:55:17.815Z,2.58
2022-09-20T23:58:21.214Z,2.70
